createdAt,value
2023-04-12T00:02:27.633Z,8.90
2023-04-12T00:05:23.078Z,7.50
2023-04-12T00:08:17.060Z,7.70
2023-04-12T00:11:11.510Z,7.20
2023-04-12T00:14:05.087Z,6.50
2023-04-12T00:16:58.838Z,7.50
2023-04-12T00:19:53.019Z,5.90
2023-04-12T00:22:46.800Z,5.90
2023-04-12T00:25:40.436Z,6.00
2023-04-12T00:28:34.269Z,5.80
2023-04-12T00:31:28.179Z,6.50
2023-04-12T00:34:21.851Z,7.20
2023-04-12T00:37:15.703Z,7.20
2023-04-12T00:40:12.693Z,6.30
2023-04-12T00:43:06.353Z,5.10
2023-04-12T00:46:01.072Z,6.80
2023-04-12T00:48:55.018Z,7.40
2023-04-12T00:51:48.670Z,5.70
2023-04-12T00:54:43.001Z,5.70
2023-04-12T00:57:39.853Z,5.50
2023-04-12T01:00:35.033Z,6.00
2023-04-12T01:03:30.968Z,5.30
2023-04-12T01:06:34.018Z,5.80
2023-04-12T01:09:43.941Z,6.10
2023-04-12T01:12:51.447Z,5.20
2023-04-12T01:16:09.041Z,4.70
2023-04-12T01:19:07.164Z,5.10
2023-04-12T01:22:18.205Z,5.80
2023-04-12T01:25:27.293Z,4.60
2023-04-12T01:28:28.232Z,5.80
2023-04-12T01:31:26.053Z,5.40
2023-04-12T01:34:21.329Z,5.80
2023-04-12T01:37:16.407Z,5.60
2023-04-12T01:40:15.053Z,5.10
2023-04-12T01:43:13.757Z,4.20
2023-04-12T01:46:08.151Z,4.10
2023-04-12T01:49:03.916Z,4.90
2023-04-12T01:52:08.586Z,4.50
2023-04-12T01:55:05.943Z,4.70
2023-04-12T01:58:00.336Z,5.40
2023-04-12T02:00:55.800Z,4.00
2023-04-12T02:03:51.375Z,3.60
2023-04-12T02:06:46.221Z,4.80
2023-04-12T02:09:42.208Z,4.00
2023-04-12T02:12:35.947Z,4.40
2023-04-12T02:15:30.036Z,5.80
2023-04-12T02:18:24.373Z,5.20
2023-04-12T02:21:18.047Z,4.90
2023-04-12T02:24:13.100Z,3.80
2023-04-12T02:27:06.745Z,4.60
2023-04-12T02:30:00.367Z,3.90
2023-04-12T02:32:54.154Z,5.20
2023-04-12T02:35:48.208Z,4.40
2023-04-12T02:38:42.008Z,4.30
2023-04-12T02:41:35.945Z,4.90
2023-04-12T02:44:31.742Z,4.30
2023-04-12T02:47:28.402Z,5.60
2023-04-12T02:50:22.378Z,4.40
2023-04-12T02:53:16.504Z,4.40
2023-04-12T02:56:12.152Z,6.00
2023-04-12T02:59:06.838Z,5.00
2023-04-12T03:02:00.912Z,5.80
2023-04-12T03:04:54.794Z,5.10
2023-04-12T03:07:49.079Z,6.30
2023-04-12T03:10:42.842Z,6.60
2023-04-12T03:13:36.454Z,5.20
2023-04-12T03:16:30.922Z,4.60
2023-04-12T03:19:24.563Z,5.30
2023-04-12T03:22:18.329Z,6.10
2023-04-12T03:25:13.529Z,6.70
2023-04-12T03:28:07.552Z,5.80
2023-04-12T03:31:01.353Z,5.30
2023-04-12T03:33:56.265Z,5.50
2023-04-12T03:36:50.383Z,5.80
2023-04-12T03:39:47.898Z,4.60
2023-04-12T03:42:42.192Z,5.60
2023-04-12T03:45:36.485Z,5.30
2023-04-12T03:48:30.386Z,7.10
2023-04-12T03:51:26.814Z,7.20
2023-04-12T03:54:20.708Z,6.80
2023-04-12T03:57:14.891Z,5.90
2023-04-12T04:00:12.433Z,5.70
2023-04-12T04:03:06.462Z,5.30
2023-04-12T04:06:00.640Z,4.60
2023-04-12T04:08:38.128Z,4.90
2023-04-12T04:11:32.208Z,5.60
2023-04-12T04:14:25.843Z,4.80
2023-04-12T04:17:19.648Z,4.80
2023-04-12T04:20:22.770Z,4.40
2023-04-12T04:23:17.458Z,5.00
2023-04-12T04:26:12.155Z,5.90
2023-04-12T04:29:05.907Z,5.50
2023-04-12T04:31:59.812Z,5.90
2023-04-12T04:34:53.600Z,7.20
2023-04-12T04:37:47.667Z,6.60
2023-04-12T04:40:42.273Z,5.40
2023-04-12T04:43:39.953Z,6.40
2023-04-12T04:49:26.246Z,8.20
2023-04-12T04:52:20.353Z,7.00
2023-04-12T04:55:15.150Z,7.60
2023-04-12T04:58:09.410Z,4.90
2023-04-12T05:01:03.504Z,7.20
2023-04-12T05:03:57.451Z,5.90
2023-04-12T05:06:51.658Z,7.10
2023-04-12T05:09:45.473Z,6.80
2023-04-12T05:12:39.670Z,6.20
2023-04-12T05:15:34.446Z,6.60
2023-04-12T05:18:28.543Z,6.10
2023-04-12T05:21:23.726Z,6.20
2023-04-12T05:24:18.273Z,6.20
2023-04-12T05:27:12.007Z,5.10
2023-04-12T05:30:07.849Z,5.80
2023-04-12T05:33:01.865Z,6.90
2023-04-12T05:35:55.829Z,5.00
2023-04-12T05:38:49.531Z,8.00
2023-04-12T05:41:43.394Z,6.70
2023-04-12T05:44:39.957Z,8.60
2023-04-12T05:47:33.650Z,12.30
2023-04-12T05:50:27.471Z,8.40
2023-04-12T05:53:22.026Z,8.10
2023-04-12T05:56:16.774Z,6.70
2023-04-12T05:59:11.593Z,7.90
2023-04-12T06:02:05.525Z,7.90
2023-04-12T06:04:59.792Z,8.70
2023-04-12T06:07:54.158Z,8.60
2023-04-12T06:10:48.388Z,10.40
2023-04-12T06:13:42.851Z,9.30
2023-04-12T06:16:36.838Z,8.70
2023-04-12T06:19:30.895Z,8.50
2023-04-12T06:22:24.595Z,8.60
2023-04-12T06:25:18.768Z,9.20
2023-04-12T06:28:12.396Z,9.10
2023-04-12T06:31:06.921Z,7.90
2023-04-12T06:34:01.033Z,8.30
2023-04-12T06:36:54.594Z,9.10
2023-04-12T06:39:48.247Z,10.40
2023-04-12T06:42:41.944Z,9.10
2023-04-12T06:45:35.773Z,8.70
2023-04-12T06:48:29.801Z,8.50
2023-04-12T06:51:24.159Z,8.30
2023-04-12T06:54:26.508Z,9.00
2023-04-12T06:57:20.822Z,9.10
2023-04-12T07:00:17.342Z,7.40
2023-04-12T07:03:11.950Z,8.50
2023-04-12T07:06:17.773Z,10.50
2023-04-12T07:09:19.527Z,9.80
2023-04-12T07:12:13.940Z,7.70
2023-04-12T07:15:09.522Z,9.50
2023-04-12T07:18:03.458Z,10.40
2023-04-12T07:20:59.464Z,8.90
2023-04-12T07:23:53.032Z,8.30
2023-04-12T07:26:46.644Z,7.70
2023-04-12T07:29:40.281Z,9.20
2023-04-12T07:32:33.701Z,8.60
2023-04-12T07:35:27.663Z,9.60
2023-04-12T07:38:21.504Z,8.40
2023-04-12T07:41:15.471Z,7.70
2023-04-12T07:44:09.366Z,9.00
2023-04-12T07:47:03.293Z,8.90
2023-04-12T07:49:58.845Z,12.50
2023-04-12T07:52:52.768Z,10.30
2023-04-12T07:55:46.443Z,9.00
2023-04-12T07:58:40.254Z,10.00
2023-04-12T08:01:33.992Z,9.30
2023-04-12T08:04:28.359Z,8.50
2023-04-12T08:07:22.635Z,9.60
2023-04-12T08:10:16.479Z,10.40
2023-04-12T08:13:10.621Z,9.20
2023-04-12T08:16:04.566Z,8.10
2023-04-12T08:18:59.444Z,7.30
2023-04-12T08:21:53.807Z,8.40
2023-04-12T08:24:47.696Z,7.50
2023-04-12T08:27:43.060Z,7.00
2023-04-12T08:30:37.311Z,11.00
2023-04-12T08:33:31.147Z,7.00
2023-04-12T08:36:24.835Z,7.20
2023-04-12T08:39:18.609Z,6.30
2023-04-12T08:42:16.820Z,7.40
2023-04-12T08:45:13.177Z,7.30
2023-04-12T08:48:07.534Z,7.10
2023-04-12T08:51:02.864Z,6.70
2023-04-12T08:53:56.837Z,6.80
2023-04-12T08:56:50.844Z,7.50
2023-04-12T08:59:46.562Z,6.20
2023-04-12T09:02:43.379Z,4.70
2023-04-12T09:05:38.130Z,5.50
2023-04-12T09:08:31.720Z,5.70
2023-04-12T09:11:29.769Z,6.50
2023-04-12T09:14:28.025Z,7.00
2023-04-12T09:17:29.622Z,7.20
2023-04-12T09:20:29.785Z,6.00
2023-04-12T09:23:25.387Z,6.30
2023-04-12T09:26:32.586Z,5.50
2023-04-12T09:29:27.819Z,5.60
2023-04-12T09:32:28.918Z,4.90
2023-04-12T09:35:43.090Z,5.60
2023-04-12T09:38:39.446Z,6.00
2023-04-12T09:41:33.610Z,7.00
2023-04-12T09:44:34.290Z,5.10
2023-04-12T09:47:48.221Z,7.80
2023-04-12T09:50:42.413Z,6.60
2023-04-12T09:53:37.366Z,6.00
2023-04-12T09:56:33.628Z,5.90
2023-04-12T09:59:32.475Z,5.70
2023-04-12T10:02:29.715Z,5.80
2023-04-12T10:05:26.890Z,5.30
2023-04-12T10:11:15.848Z,6.60
2023-04-12T10:14:11.061Z,5.20
2023-04-12T10:17:06.843Z,4.50
2023-04-12T10:20:01.946Z,4.60
2023-04-12T10:22:56.235Z,6.40
2023-04-12T10:25:55.622Z,5.60
2023-04-12T10:29:25.607Z,4.30
2023-04-12T10:32:27.109Z,6.00
2023-04-12T10:35:21.722Z,7.00
2023-04-12T10:38:16.392Z,5.10
2023-04-12T10:41:20.795Z,5.40
2023-04-12T10:44:29.205Z,5.90
2023-04-12T10:48:01.780Z,6.40
2023-04-12T10:51:15.330Z,7.00
2023-04-12T10:54:36.425Z,5.80
2023-04-12T10:57:49.590Z,5.70
2023-04-12T11:01:18.360Z,5.20
2023-04-12T11:04:21.910Z,5.10
2023-04-12T11:07:16.340Z,5.10
2023-04-12T11:10:18.987Z,6.50
2023-04-12T11:13:15.668Z,5.20
2023-04-12T11:16:12.871Z,5.40
2023-04-12T11:19:08.702Z,4.60
2023-04-12T11:22:04.607Z,4.00
2023-04-12T11:25:00.641Z,5.90
2023-04-12T11:27:56.344Z,6.20
2023-04-12T11:30:56.877Z,5.20
2023-04-12T11:33:51.071Z,4.10
2023-04-12T11:36:45.480Z,4.20
2023-04-12T11:39:42.128Z,4.90
2023-04-12T11:42:36.282Z,7.40
2023-04-12T11:45:32.010Z,5.80
2023-04-12T11:48:26.465Z,5.80
2023-04-12T11:51:31.627Z,4.40
2023-04-12T11:54:31.502Z,5.80
2023-04-12T11:57:25.686Z,4.90
2023-04-12T12:00:25.486Z,4.60
2023-04-12T12:03:20.590Z,5.30
2023-04-12T12:06:16.213Z,5.80
2023-04-12T12:09:10.843Z,10.60
2023-04-12T12:12:05.110Z,7.40
2023-04-12T12:15:03.279Z,6.60
2023-04-12T12:17:58.580Z,11.60
2023-04-12T12:20:55.755Z,5.00
2023-04-12T12:23:50.833Z,4.10
2023-04-12T12:26:45.451Z,4.90
2023-04-12T12:29:42.505Z,6.60
2023-04-12T12:32:39.955Z,5.10
2023-04-12T12:35:37.783Z,5.90
2023-04-12T12:38:56.062Z,8.80
2023-04-12T12:41:58.242Z,4.80
2023-04-12T12:44:52.657Z,6.90
2023-04-12T12:47:55.529Z,4.90
2023-04-12T12:50:49.704Z,6.70
2023-04-12T12:53:44.689Z,5.50
2023-04-12T12:56:38.668Z,8.10
2023-04-12T12:59:32.387Z,5.50
2023-04-12T13:02:26.611Z,5.30
2023-04-12T13:05:21.425Z,7.70
2023-04-12T13:08:15.834Z,7.00
2023-04-12T13:11:10.910Z,7.20
2023-04-12T13:14:04.731Z,9.70
2023-04-12T13:16:58.585Z,6.80
2023-04-12T13:19:53.250Z,8.80
2023-04-12T13:22:47.053Z,7.50
2023-04-12T13:25:41.354Z,7.80
2023-04-12T13:28:35.382Z,7.60
2023-04-12T13:31:29.211Z,7.70
2023-04-12T13:34:23.516Z,6.60
2023-04-12T13:37:17.281Z,7.90
2023-04-12T13:40:12.899Z,5.60
2023-04-12T13:43:07.638Z,9.00
2023-04-12T13:46:01.863Z,6.70
2023-04-12T13:48:55.969Z,9.20
2023-04-12T13:51:50.014Z,7.10
2023-04-12T13:54:44.625Z,5.90
2023-04-12T13:57:38.420Z,6.80
2023-04-12T14:00:32.427Z,6.70
2023-04-12T14:03:26.661Z,10.10
2023-04-12T14:06:21.134Z,10.90
2023-04-12T14:09:34.932Z,8.40
2023-04-12T14:12:29.058Z,7.10
2023-04-12T14:15:22.834Z,5.80
2023-04-12T14:18:16.966Z,7.00
2023-04-12T14:21:11.727Z,7.00
2023-04-12T14:24:05.794Z,5.00
2023-04-12T14:27:01.021Z,5.40
2023-04-12T14:29:54.984Z,5.90
2023-04-12T14:32:50.251Z,7.20
2023-04-12T14:35:44.275Z,5.40
2023-04-12T14:38:38.573Z,6.90
2023-04-12T14:41:32.213Z,10.10
2023-04-12T14:44:26.441Z,7.70
2023-04-12T14:47:20.950Z,5.50
2023-04-12T14:50:16.116Z,5.80
2023-04-12T14:53:10.438Z,6.40
2023-04-12T14:56:04.340Z,5.90
2023-04-12T14:58:58.534Z,7.60
2023-04-12T15:01:53.390Z,8.90
2023-04-12T15:04:50.507Z,7.50
2023-04-12T15:07:45.816Z,6.20
2023-04-12T15:10:40.556Z,6.40
2023-04-12T15:13:35.104Z,10.00
2023-04-12T15:16:29.892Z,5.90
2023-04-12T15:19:24.409Z,6.30
2023-04-12T15:22:18.764Z,6.30
2023-04-12T15:25:14.082Z,5.20
2023-04-12T15:28:08.317Z,9.50
2023-04-12T15:31:02.342Z,5.90
2023-04-12T15:33:57.938Z,5.90
2023-04-12T15:36:52.969Z,5.80
2023-04-12T15:39:47.200Z,6.00
2023-04-12T15:42:41.583Z,5.60
2023-04-12T15:45:35.650Z,5.50
2023-04-12T15:48:29.864Z,5.00
2023-04-12T15:51:24.100Z,5.70
2023-04-12T15:54:17.943Z,8.70
2023-04-12T15:57:11.747Z,4.60
2023-04-12T16:00:13.790Z,5.40
2023-04-12T16:03:09.154Z,4.70
2023-04-12T16:06:03.972Z,5.90
2023-04-12T16:08:58.539Z,5.40
2023-04-12T16:11:52.719Z,5.70
2023-04-12T16:14:49.326Z,3.80
2023-04-12T16:17:44.996Z,5.50
2023-04-12T16:20:39.486Z,4.60
2023-04-12T16:23:33.749Z,6.90
2023-04-12T16:26:27.676Z,4.90
2023-04-12T16:29:21.385Z,6.70
2023-04-12T16:32:15.414Z,4.40
2023-04-12T16:35:11.131Z,4.10
2023-04-12T16:38:05.359Z,5.60
2023-04-12T16:40:59.225Z,3.80
2023-04-12T16:43:55.120Z,4.20
2023-04-12T16:46:50.113Z,5.50
2023-04-12T16:49:44.013Z,9.70
2023-04-12T16:52:39.811Z,5.40
2023-04-12T16:55:33.724Z,5.10
2023-04-12T16:58:28.268Z,5.30
2023-04-12T17:01:22.445Z,5.80
2023-04-12T17:04:16.674Z,4.60
2023-04-12T17:07:11.216Z,7.20
2023-04-12T17:10:05.535Z,4.80
2023-04-12T17:13:01.826Z,5.20
2023-04-12T17:15:55.943Z,6.30
2023-04-12T17:18:49.948Z,5.20
2023-04-12T17:21:48.040Z,6.30
2023-04-12T17:24:42.238Z,5.90
2023-04-12T17:27:37.488Z,4.70
2023-04-12T17:30:31.898Z,6.30
2023-04-12T17:33:26.154Z,4.80
2023-04-12T17:36:20.368Z,7.10
2023-04-12T17:39:14.290Z,7.40
2023-04-12T17:42:08.341Z,6.20
2023-04-12T17:45:02.274Z,7.80
2023-04-12T17:47:56.648Z,10.70
2023-04-12T17:50:50.614Z,7.00
2023-04-12T17:53:45.714Z,11.10
2023-04-12T17:56:40.061Z,11.20
2023-04-12T17:59:34.113Z,7.70
2023-04-12T18:02:28.257Z,15.70
2023-04-12T18:05:22.263Z,8.10
2023-04-12T18:08:16.604Z,8.40
2023-04-12T18:11:10.961Z,9.70
2023-04-12T18:14:04.866Z,12.90
2023-04-12T18:16:58.846Z,15.90
2023-04-12T18:19:52.901Z,11.30
2023-04-12T18:22:46.791Z,15.60
2023-04-12T18:25:41.207Z,14.00
2023-04-12T18:28:34.954Z,13.30
2023-04-12T18:31:29.021Z,13.70
2023-04-12T18:34:23.142Z,15.90
2023-04-12T18:37:16.953Z,16.80
2023-04-12T18:40:13.479Z,15.40
2023-04-12T18:43:08.033Z,16.20
2023-04-12T18:46:02.320Z,15.00
2023-04-12T18:48:56.360Z,16.40
2023-04-12T18:51:51.871Z,17.60
2023-04-12T18:54:45.929Z,16.20
2023-04-12T18:57:40.310Z,14.40
2023-04-12T19:00:34.134Z,13.00
2023-04-12T19:03:28.639Z,16.20
2023-04-12T19:06:22.897Z,15.80
2023-04-12T19:09:17.029Z,14.40
2023-04-12T19:12:11.399Z,14.20
2023-04-12T19:15:07.060Z,17.40
2023-04-12T19:18:01.474Z,18.40
2023-04-12T19:20:55.513Z,15.40
2023-04-12T19:23:49.550Z,20.50
2023-04-12T19:26:47.098Z,17.30
2023-04-12T19:29:41.580Z,17.10
2023-04-12T19:32:35.378Z,17.80
2023-04-12T19:35:32.808Z,17.70
2023-04-12T19:38:26.573Z,19.10
2023-04-12T19:41:21.722Z,18.10
2023-04-12T19:44:15.545Z,15.10
2023-04-12T19:47:09.385Z,15.70
2023-04-12T19:50:04.422Z,16.80
2023-04-12T19:52:58.410Z,16.50
2023-04-12T19:55:52.522Z,18.90
2023-04-12T19:58:46.380Z,19.70
2023-04-12T20:01:48.164Z,17.70
2023-04-12T20:04:42.414Z,20.40
2023-04-12T20:07:37.005Z,18.40
2023-04-12T20:10:30.966Z,19.80
2023-04-12T20:13:25.178Z,19.70
2023-04-12T20:16:19.522Z,20.10
2023-04-12T20:19:14.030Z,19.40
2023-04-12T20:22:08.041Z,21.50
2023-04-12T20:25:01.804Z,18.40
2023-04-12T20:27:55.689Z,19.30
2023-04-12T20:30:49.828Z,24.20
2023-04-12T20:33:43.480Z,21.10
2023-04-12T20:36:37.114Z,16.10
2023-04-12T20:39:31.191Z,16.80
2023-04-12T20:42:24.869Z,16.30
2023-04-12T20:45:18.843Z,21.50
2023-04-12T20:48:12.653Z,19.60
2023-04-12T20:51:06.744Z,17.20
2023-04-12T20:54:09.599Z,19.00
2023-04-12T20:57:04.287Z,19.30
2023-04-12T20:59:59.389Z,21.30
2023-04-12T21:02:54.626Z,18.40
2023-04-12T21:05:52.682Z,18.30
2023-04-12T21:08:47.477Z,21.70
2023-04-12T21:11:41.819Z,18.20
2023-04-12T21:14:37.468Z,21.20
2023-04-12T21:17:31.297Z,22.20
2023-04-12T21:20:25.439Z,19.90
2023-04-12T21:23:20.035Z,25.20
2023-04-12T21:26:14.880Z,21.00
2023-04-12T21:29:08.596Z,22.20
2023-04-12T21:32:04.427Z,21.70
2023-04-12T21:34:58.636Z,24.70
2023-04-12T21:37:52.892Z,21.50
2023-04-12T21:40:47.391Z,23.00
2023-04-12T21:43:41.815Z,23.70
2023-04-12T21:46:35.575Z,21.50
2023-04-12T21:49:30.709Z,26.70
2023-04-12T21:52:24.540Z,23.10
2023-04-12T21:55:19.065Z,22.10
2023-04-12T21:58:12.913Z,22.10
2023-04-12T22:01:07.346Z,25.40
2023-04-12T22:04:01.726Z,21.40
2023-04-12T22:06:56.641Z,22.90
2023-04-12T22:09:51.247Z,21.70
2023-04-12T22:12:50.036Z,24.70
2023-04-12T22:15:44.617Z,23.60
2023-04-12T22:18:38.327Z,21.00
2023-04-12T22:21:33.437Z,21.80
2023-04-12T22:24:27.311Z,24.10
2023-04-12T22:27:21.275Z,25.10
2023-04-12T22:30:16.238Z,22.60
2023-04-12T22:33:10.434Z,24.60
2023-04-12T22:36:06.138Z,22.70
2023-04-12T22:39:00.582Z,25.10
2023-04-12T22:41:57.240Z,25.20
2023-04-12T22:44:54.106Z,25.90
2023-04-12T22:47:48.178Z,23.90
2023-04-12T22:50:41.850Z,27.20
2023-04-12T22:53:35.758Z,26.00
2023-04-12T22:56:30.208Z,25.40
2023-04-12T22:59:24.624Z,32.80
2023-04-12T23:02:18.545Z,23.90
2023-04-12T23:05:14.012Z,26.80
2023-04-12T23:08:08.490Z,26.30
2023-04-12T23:11:03.584Z,28.40
2023-04-12T23:13:58.320Z,23.80
2023-04-12T23:16:52.249Z,26.50
2023-04-12T23:19:45.831Z,28.00
2023-04-12T23:22:56.582Z,27.20
2023-04-12T23:25:52.936Z,28.00
2023-04-12T23:28:37.443Z,23.20
2023-04-12T23:31:32.130Z,30.20
2023-04-12T23:34:26.530Z,25.90
2023-04-12T23:37:20.380Z,26.90
2023-04-12T23:40:15.158Z,28.00
2023-04-12T23:43:09.814Z,24.90
2023-04-12T23:46:04.167Z,27.80
2023-04-12T23:48:57.899Z,28.40
2023-04-12T23:51:51.729Z,30.40
2023-04-12T23:54:45.893Z,31.80
2023-04-12T23:57:39.957Z,32.10
